Forside
METAR-TAF:

METAR-TAF

Lufthavne :

Troy, Michigan, USA

Breddekreds: 42-32-35N, længdekreds: 083-10-40W, højde: 222 m

Aktuelle vejr

Denne rapport blev lavet for 20 minutter siden, kl. 18:15 UTC
Vind 10 kt fra syd med vindstød på up til 16 kt
Temperatur 10°C
Fugtighed 37%
Tryk 1014 hPa
Sigt: 16.1 km
skyfri

METAR: KVLL 231815Z AUTO 19010G16KT 10SM CLR 10/M04 A2994 RMK AO2 T01011041

Tid: 13:35 (18:35 UTC)


TAF: fraværende

Vejrobservationer og prognoser fra mere end 4000 lufthavne (METAR og TAF).

De gule og røde prikker repræsenterer de meteorologiske stationer.

Flyt musen over at se navnet på stationen.

Så klik over at se vejr observationer og prognoser.

At skifte det kort: Klik på de grønne knapper med et sort kors for at zoome ind; på den grønne knap med en bindestreg for at zoome ud; eller på de grønne pile for tilstødende kort.


METAR-TAF: